Time;durP1;ratioP1;P1;durP2;ratioP2;P2;SDS_P1;SDS_P2;PMS_P1;PMS_P2;Temp;Humidity;BMP_temperature;BMP_pressure;BME280_temperature;BME280_humidity;BME280_pressure;Samples;Min_cycle;Max_cycle;Signal;HPM_P1;HPM_P2
2022/04/24 00:01:59;;;;;;;15.57;10.50;;;8.40;96.30;;;;;;5089900;28;20269;-77
2022/04/24 00:04:25;;;;;;;17.53;10.80;;;8.40;96.30;;;;;;5090284;28;20206;-78
2022/04/24 00:06:53;;;;;;;15.50;9.90;;;8.30;96.50;;;;;;5090059;28;20185;-78
2022/04/24 00:09:20;;;;;;;15.53;10.30;;;8.30;96.60;;;;;;5090434;28;20359;-78
2022/04/24 00:11:46;;;;;;;16.20;11.77;;;8.30;96.60;;;;;;5089619;28;20460;-78
2022/04/24 00:14:12;;;;;;;17.43;11.27;;;8.20;96.70;;;;;;5092204;28;20428;-77
2022/04/24 00:16:38;;;;;;;16.37;11.37;;;8.20;96.80;;;;;;5090217;28;20415;-78
2022/04/24 00:19:04;;;;;;;18.10;11.17;;;8.20;96.80;;;;;;5090590;28;20590;-78
2022/04/24 00:21:30;;;;;;;15.43;10.50;;;8.10;96.90;;;;;;5089995;28;20543;-77
2022/04/24 00:23:56;;;;;;;16.40;10.80;;;8.10;97.00;;;;;;5090122;28;20484;-77
2022/04/24 00:26:22;;;;;;;15.53;10.27;;;8.10;97.10;;;;;;5090224;28;20416;-78
2022/04/24 00:28:48;;;;;;;21.00;11.17;;;8.00;97.10;;;;;;5090554;28;20474;-78
2022/04/24 00:31:13;;;;;;;16.47;11.17;;;8.00;97.30;;;;;;5090091;28;20179;-78
2022/04/24 00:33:39;;;;;;;17.00;11.50;;;8.00;97.30;;;;;;5090452;28;20424;-77
2022/04/24 00:36:05;;;;;;;18.63;11.70;;;7.90;97.30;;;;;;5090935;28;20190;-77
2022/04/24 00:38:34;;;;;;;18.03;11.60;;;7.90;97.30;;;;;;5091908;28;20186;-78
2022/04/24 00:41:00;;;;;;;18.17;12.63;;;7.90;97.30;;;;;;5090436;28;20219;-78
2022/04/24 00:43:26;;;;;;;21.43;13.20;;;7.80;97.30;;;;;;5090237;28;20822;-79
2022/04/24 00:46:14;;;;;;;18.57;12.00;;;7.80;97.30;;;;;;5090073;28;20700;-77
2022/04/24 00:48:44;;;;;;;21.00;14.00;;;7.70;97.30;;;;;;5089155;28;20182;-78
2022/04/24 00:51:11;;;;;;;21.30;12.97;;;7.70;97.30;;;;;;5089803;28;20419;-79
2022/04/24 00:53:37;;;;;;;24.20;13.20;;;7.70;97.30;;;;;;5090446;28;20417;-78
2022/04/24 00:56:03;;;;;;;23.20;13.13;;;7.60;97.30;;;;;;5089722;28;20574;-78
2022/04/24 00:58:29;;;;;;;23.13;13.17;;;7.60;97.30;;;;;;5091491;28;21029;-78
2022/04/24 01:00:56;;;;;;;25.37;14.20;;;7.60;97.30;;;;;;5094598;28;20512;-79
2022/04/24 01:03:23;;;;;;;21.57;12.90;;;7.50;97.30;;;;;;5093704;28;20174;-80
2022/04/24 01:05:48;;;;;;;21.47;13.23;;;7.50;97.30;;;;;;5095249;28;20436;-80
2022/04/24 01:08:14;;;;;;;23.60;14.50;;;7.50;97.30;;;;;;5095807;28;20426;-80
2022/04/24 01:10:40;;;;;;;24.77;13.83;;;7.50;97.30;;;;;;5094362;28;20561;-80
2022/04/24 01:13:06;;;;;;;25.10;13.37;;;7.50;97.30;;;;;;5094207;28;20271;-80
2022/04/24 01:15:33;;;;;;;20.50;12.83;;;7.40;97.30;;;;;;5094216;28;20441;-79
2022/04/24 01:17:59;;;;;;;22.10;12.63;;;7.40;97.30;;;;;;5093726;28;20416;-79
2022/04/24 01:20:25;;;;;;;19.70;12.13;;;7.30;97.30;;;;;;5093323;28;20503;-79
2022/04/24 01:22:51;;;;;;;20.37;11.97;;;7.30;97.30;;;;;;5094184;28;20455;-80
2022/04/24 01:25:17;;;;;;;20.50;11.60;;;7.20;97.30;;;;;;5093805;28;20452;-80
2022/04/24 01:27:42;;;;;;;18.10;11.50;;;7.20;97.30;;;;;;5095923;28;20417;-79
2022/04/24 01:30:08;;;;;;;17.67;10.77;;;7.20;97.30;;;;;;5094372;28;20247;-79
2022/04/24 01:32:34;;;;;;;20.07;11.70;;;7.10;97.30;;;;;;5095105;28;20677;-79
2022/04/24 01:35:00;;;;;;;17.60;10.83;;;7.10;97.30;;;;;;5093605;28;20587;-79
2022/04/24 01:37:26;;;;;;;18.57;10.93;;;7.10;97.30;;;;;;5094475;28;20174;-79
2022/04/24 01:39:55;;;;;;;16.93;11.07;;;7.10;97.30;;;;;;5094486;28;20413;-79
2022/04/24 01:42:21;;;;;;;19.03;11.73;;;7.00;97.30;;;;;;5093815;28;20499;-79
2022/04/24 01:44:47;;;;;;;19.57;12.10;;;7.00;97.30;;;;;;5093853;28;20460;-79
2022/04/24 01:47:13;;;;;;;18.20;11.80;;;7.00;97.30;;;;;;5094051;28;20420;-80
2022/04/24 01:49:39;;;;;;;18.17;11.30;;;6.90;97.30;;;;;;5094739;28;20972;-79
2022/04/24 01:52:06;;;;;;;23.57;12.37;;;6.90;97.30;;;;;;5093752;28;20224;-80
2022/04/24 01:54:32;;;;;;;19.23;11.53;;;6.90;97.30;;;;;;5092031;28;20236;-79
2022/04/24 01:56:57;;;;;;;20.23;11.60;;;6.90;97.30;;;;;;5093486;28;20925;-79
2022/04/24 01:59:23;;;;;;;18.80;11.60;;;6.90;97.30;;;;;;5094393;28;20179;-80
2022/04/24 02:01:49;;;;;;;17.90;11.27;;;6.90;97.30;;;;;;5094806;28;20175;-79
2022/04/24 02:04:15;;;;;;;18.50;11.80;;;6.80;97.30;;;;;;5092939;28;20199;-79
2022/04/24 02:06:41;;;;;;;19.70;11.77;;;6.80;97.30;;;;;;5092520;28;20428;-79
2022/04/24 02:09:06;;;;;;;16.20;10.97;;;6.80;97.30;;;;;;5091733;28;20416;-79
2022/04/24 02:11:32;;;;;;;17.60;10.93;;;6.80;97.30;;;;;;5093240;28;20266;-79
2022/04/24 02:13:57;;;;;;;18.30;11.53;;;6.80;97.30;;;;;;5091371;28;20191;-79
2022/04/24 02:16:23;;;;;;;20.53;12.53;;;6.80;97.30;;;;;;5092266;28;20273;-79
2022/04/24 02:18:48;;;;;;;23.30;11.30;;;6.80;97.30;;;;;;5094181;28;20640;-80
2022/04/24 02:21:14;;;;;;;19.47;11.37;;;6.80;97.30;;;;;;5094804;28;20224;-80
2022/04/24 02:23:40;;;;;;;19.00;11.90;;;6.80;97.30;;;;;;5093640;28;20179;-80
2022/04/24 02:26:06;;;;;;;17.30;10.63;;;6.70;97.30;;;;;;5094024;28;20210;-80
2022/04/24 02:28:31;;;;;;;19.90;12.40;;;6.70;97.30;;;;;;5095708;28;20261;-80
2022/04/24 02:30:57;;;;;;;21.03;12.30;;;6.70;97.30;;;;;;5093994;28;20255;-80
2022/04/24 02:33:22;;;;;;;20.70;11.77;;;6.70;97.30;;;;;;5094547;28;20216;-80
2022/04/24 02:35:48;;;;;;;18.60;12.07;;;6.70;97.30;;;;;;5093078;28;20253;-81
2022/04/24 02:38:14;;;;;;;19.87;11.50;;;6.70;97.30;;;;;;5094665;28;20436;-81
2022/04/24 02:40:39;;;;;;;21.70;12.07;;;6.60;97.30;;;;;;5093638;28;20181;-81
2022/04/24 02:43:05;;;;;;;18.30;10.47;;;6.60;97.30;;;;;;5093959;28;20182;-80
2022/04/24 02:45:31;;;;;;;19.40;11.57;;;6.60;97.30;;;;;;5092877;28;20207;-81
2022/04/24 02:47:56;;;;;;;19.00;12.10;;;6.50;97.30;;;;;;5093254;28;20863;-80
2022/04/24 02:50:23;;;;;;;20.20;11.40;;;6.50;97.30;;;;;;5093781;28;20209;-80
2022/04/24 02:52:54;;;;;;;22.63;10.87;;;6.50;97.30;;;;;;5093803;28;20202;-80
2022/04/24 02:55:21;;;;;;;19.17;11.00;;;6.50;97.30;;;;;;5092708;28;20484;-79
2022/04/24 02:57:48;;;;;;;19.07;11.53;;;6.50;97.30;;;;;;5093816;28;20461;-79
2022/04/24 03:00:27;;;;;;;18.67;11.33;;;6.40;97.30;;;;;;5093699;28;20429;-80
2022/04/24 03:02:53;;;;;;;19.90;12.27;;;6.40;97.30;;;;;;5092868;28;20913;-80
2022/04/24 03:05:22;;;;;;;21.37;11.57;;;6.40;97.30;;;;;;5089584;28;20601;-79
2022/04/24 03:07:48;;;;;;;22.10;12.40;;;6.40;97.30;;;;;;5090792;28;20503;-79
2022/04/24 03:10:14;;;;;;;20.67;12.50;;;6.40;97.30;;;;;;5092597;28;20413;-79
2022/04/24 03:12:41;;;;;;;23.60;12.50;;;6.40;97.30;;;;;;5093626;28;20460;-80
2022/04/24 03:15:09;;;;;;;21.73;11.00;;;6.40;97.30;;;;;;5092047;28;20456;-79
2022/04/24 03:17:35;;;;;;;18.33;11.43;;;6.40;97.30;;;;;;5092222;28;20448;-80
2022/04/24 03:20:05;;;;;;;19.40;10.90;;;6.30;97.30;;;;;;5092619;28;20412;-79
2022/04/24 03:22:33;;;;;;;20.33;11.73;;;6.40;97.30;;;;;;5091369;28;20788;-79
2022/04/24 03:24:59;;;;;;;16.17;10.80;;;6.30;97.30;;;;;;5090048;28;20520;-79
2022/04/24 03:27:25;;;;;;;20.40;11.10;;;6.30;97.30;;;;;;5092531;28;20500;-79
2022/04/24 03:29:51;;;;;;;21.40;12.43;;;6.30;97.30;;;;;;5091175;28;20440;-78
2022/04/24 03:32:17;;;;;;;20.20;11.80;;;6.30;97.30;;;;;;5090613;28;20207;-79
2022/04/24 03:34:42;;;;;;;20.53;12.40;;;6.30;97.30;;;;;;5089788;28;20206;-79
2022/04/24 03:37:08;;;;;;;22.80;12.30;;;6.30;97.30;;;;;;5091804;28;20979;-79
2022/04/24 03:39:34;;;;;;;20.20;12.50;;;6.20;97.30;;;;;;5091656;28;20171;-79
2022/04/24 03:41:59;;;;;;;20.30;12.50;;;6.20;97.30;;;;;;5090631;28;20174;-79
2022/04/24 03:44:25;;;;;;;18.63;12.07;;;6.20;97.30;;;;;;5089800;28;20719;-79
2022/04/24 03:46:51;;;;;;;22.13;12.23;;;6.20;97.30;;;;;;5090486;28;20428;-79
2022/04/24 03:49:16;;;;;;;21.03;11.97;;;6.20;97.30;;;;;;5090508;28;20181;-79
2022/04/24 03:51:42;;;;;;;19.00;11.30;;;6.10;97.30;;;;;;5091591;28;20205;-79
2022/04/24 03:54:08;;;;;;;20.90;11.60;;;6.10;97.30;;;;;;5091022;28;20195;-79
2022/04/24 03:56:34;;;;;;;19.63;11.73;;;6.10;97.30;;;;;;5091690;28;20476;-80
2022/04/24 03:59:00;;;;;;;24.73;13.07;;;6.10;97.30;;;;;;5092284;28;20183;-81
2022/04/24 04:01:26;;;;;;;18.30;11.47;;;6.10;97.30;;;;;;5092771;28;20409;-80
2022/04/24 04:03:51;;;;;;;22.40;12.40;;;6.10;97.30;;;;;;5092734;28;20785;-80
2022/04/24 04:06:17;;;;;;;18.80;12.00;;;6.10;97.30;;;;;;5089535;28;20186;-79
2022/04/24 04:08:43;;;;;;;21.00;12.50;;;6.10;97.30;;;;;;5090812;28;20270;-79
2022/04/24 04:11:08;;;;;;;18.73;11.97;;;6.10;97.30;;;;;;5090540;28;20195;-80
2022/04/24 04:13:35;;;;;;;19.83;13.00;;;6.10;97.30;;;;;;5091782;28;20174;-79
2022/04/24 04:16:00;;;;;;;22.40;11.90;;;6.10;97.30;;;;;;5090828;28;20201;-79
2022/04/24 04:18:26;;;;;;;22.83;12.00;;;6.10;97.30;;;;;;5108044;28;20471;-79
2022/04/24 04:20:52;;;;;;;21.23;12.83;;;6.10;97.30;;;;;;5091163;28;20182;-79
2022/04/24 04:23:17;;;;;;;22.70;13.13;;;6.10;97.30;;;;;;5091007;28;20179;-79
2022/04/24 04:25:43;;;;;;;20.83;12.20;;;6.00;97.30;;;;;;5091855;28;20463;-79
2022/04/24 04:28:09;;;;;;;23.00;12.60;;;6.00;97.30;;;;;;5092165;28;20412;-80
2022/04/24 04:30:34;;;;;;;23.83;12.50;;;6.00;97.30;;;;;;5091940;28;20707;-79
2022/04/24 04:33:00;;;;;;;20.23;12.57;;;6.00;97.30;;;;;;5093715;28;20293;-81
2022/04/24 04:35:26;;;;;;;21.70;12.90;;;6.00;97.30;;;;;;5091580;28;20610;-80
2022/04/24 04:37:52;;;;;;;25.80;13.13;;;6.00;97.30;;;;;;5094721;28;20182;-79
2022/04/24 04:40:18;;;;;;;24.10;12.33;;;6.00;97.30;;;;;;5111554;28;20416;-80
2022/04/24 04:42:45;;;;;;;26.13;12.60;;;6.00;97.30;;;;;;5096564;28;20504;-80
2022/04/24 04:45:10;;;;;;;23.00;11.70;;;6.00;97.30;;;;;;5094475;28;20651;-80
2022/04/24 04:47:36;;;;;;;20.67;12.33;;;6.00;97.30;;;;;;5094137;28;20788;-79
2022/04/24 04:50:02;;;;;;;21.53;12.60;;;6.10;97.30;;;;;;5094093;28;20182;-79
2022/04/24 04:52:28;;;;;;;19.80;11.60;;;6.10;97.30;;;;;;5094723;28;20205;-79
2022/04/24 04:54:54;;;;;;;20.77;11.30;;;6.20;97.30;;;;;;5094928;28;20194;-80
2022/04/24 04:57:19;;;;;;;20.10;11.90;;;6.20;97.30;;;;;;5095576;28;20456;-79
2022/04/24 04:59:45;;;;;;;23.53;12.43;;;6.30;97.30;;;;;;5094965;28;20182;-79
2022/04/24 05:02:11;;;;;;;28.10;11.70;;;6.30;97.30;;;;;;5094573;28;20412;-80
2022/04/24 05:04:36;;;;;;;20.47;12.00;;;6.40;97.30;;;;;;5095014;28;20659;-80
2022/04/24 05:07:02;;;;;;;20.23;12.47;;;6.40;97.30;;;;;;5100503;28;20357;-82
2022/04/24 05:09:28;;;;;;;21.23;11.63;;;6.50;97.30;;;;;;5102032;28;20175;-82
2022/04/24 05:11:53;;;;;;;22.67;11.40;;;6.50;97.30;;;;;;5101026;28;20198;-82
2022/04/24 05:14:19;;;;;;;21.50;13.17;;;6.50;97.30;;;;;;5102279;28;20194;-82
2022/04/24 05:16:45;;;;;;;18.87;11.07;;;6.60;97.30;;;;;;5101751;28;20171;-82
2022/04/24 05:19:10;;;;;;;24.93;11.93;;;6.70;97.30;;;;;;5101859;28;20207;-82
2022/04/24 05:21:36;;;;;;;21.27;12.20;;;6.70;97.30;;;;;;5102538;28;20182;-82
2022/04/24 05:24:02;;;;;;;22.60;12.13;;;6.80;97.30;;;;;;5096093;28;20189;-81
2022/04/24 05:26:27;;;;;;;21.17;11.30;;;6.80;97.30;;;;;;5102756;28;20258;-81
2022/04/24 05:28:53;;;;;;;20.60;12.50;;;6.90;97.30;;;;;;5102608;28;20176;-81
2022/04/24 05:31:20;;;;;;;22.33;12.50;;;7.00;97.30;;;;;;5102554;28;20212;-82
2022/04/24 05:33:45;;;;;;;20.80;11.87;;;7.00;97.30;;;;;;5101593;28;20631;-82
2022/04/24 05:36:12;;;;;;;23.97;12.70;;;7.10;97.30;;;;;;5101188;28;20431;-83
2022/04/24 05:38:37;;;;;;;23.10;12.50;;;7.10;97.30;;;;;;5101770;28;20223;-82
2022/04/24 05:41:03;;;;;;;20.03;11.40;;;7.10;97.30;;;;;;5101363;28;20473;-82
2022/04/24 05:43:30;;;;;;;23.73;13.50;;;7.10;97.30;;;;;;5101236;28;20170;-82
2022/04/24 05:45:56;;;;;;;18.23;11.43;;;7.20;97.30;;;;;;5099612;28;20202;-81
2022/04/24 05:48:22;;;;;;;22.97;12.10;;;7.20;97.30;;;;;;5101303;28;20478;-81
2022/04/24 05:50:48;;;;;;;21.67;12.87;;;7.30;97.30;;;;;;5101318;28;20454;-82
2022/04/24 05:53:14;;;;;;;23.33;11.80;;;7.30;97.30;;;;;;5101972;28;20447;-82
2022/04/24 05:55:40;;;;;;;25.17;12.77;;;7.40;97.30;;;;;;5100880;28;20443;-82
2022/04/24 05:58:06;;;;;;;21.33;12.37;;;7.50;97.30;;;;;;5101193;28;20222;-82
2022/04/24 06:00:32;;;;;;;23.30;12.20;;;7.60;97.30;;;;;;5101806;28;20469;-82
2022/04/24 06:02:57;;;;;;;22.97;13.70;;;7.80;97.30;;;;;;5100017;28;20660;-82
2022/04/24 06:05:23;;;;;;;22.13;13.17;;;7.90;97.30;;;;;;5099517;28;20496;-82
2022/04/24 06:07:49;;;;;;;25.50;13.00;;;8.00;97.30;;;;;;5095971;28;20174;-78
2022/04/24 06:10:15;;;;;;;19.97;12.23;;;8.10;97.30;;;;;;5089867;28;20432;-78
2022/04/24 06:12:49;;;;;;;25.60;13.20;;;8.20;97.30;;;;;;5089977;28;20241;-78
2022/04/24 06:15:15;;;;;;;19.37;12.00;;;8.40;97.30;;;;;;5089948;28;20285;-78
2022/04/24 06:17:48;;;;;;;22.70;12.63;;;8.40;97.30;;;;;;5107220;28;20409;-79
2022/04/24 06:20:14;;;;;;;21.70;12.37;;;8.50;97.30;;;;;;5090010;28;20698;-77
2022/04/24 06:22:45;;;;;;;19.33;12.30;;;8.50;97.30;;;;;;5089697;28;20416;-78
2022/04/24 06:25:18;;;;;;;21.23;13.30;;;8.60;97.30;;;;;;5089567;28;20858;-78
2022/04/24 06:27:46;;;;;;;22.23;13.20;;;8.60;97.30;;;;;;5091193;28;20412;-78
2022/04/24 06:30:12;;;;;;;22.50;12.53;;;8.70;97.30;;;;;;5090076;28;20416;-78
2022/04/24 06:32:39;;;;;;;24.47;13.80;;;8.70;97.30;;;;;;5089635;28;20452;-78
2022/04/24 06:35:06;;;;;;;25.53;13.37;;;8.80;97.30;;;;;;5089016;28;20473;-78
2022/04/24 06:37:32;;;;;;;20.47;12.83;;;8.80;97.30;;;;;;5089855;28;20420;-78
2022/04/24 06:39:57;;;;;;;25.33;14.27;;;8.90;97.30;;;;;;5090710;28;20444;-78
2022/04/24 06:42:23;;;;;;;22.70;13.23;;;9.00;97.30;;;;;;5089547;28;20411;-78
2022/04/24 06:44:49;;;;;;;24.23;13.60;;;9.10;97.30;;;;;;5083274;28;20676;-78
2022/04/24 06:47:14;;;;;;;24.03;13.90;;;9.20;97.30;;;;;;5089184;28;20543;-79
2022/04/24 06:49:40;;;;;;;22.30;13.60;;;9.30;97.30;;;;;;5089508;28;20543;-78
2022/04/24 06:52:06;;;;;;;22.10;13.20;;;9.50;97.30;;;;;;5089371;28;20255;-78
2022/04/24 06:54:31;;;;;;;25.57;14.00;;;9.60;97.30;;;;;;5090720;28;20285;-77
2022/04/24 06:57:01;;;;;;;23.90;14.17;;;9.70;97.30;;;;;;5088866;28;20222;-79
2022/04/24 06:59:27;;;;;;;23.73;13.93;;;9.90;97.30;;;;;;5068955;28;20179;-78
2022/04/24 07:01:53;;;;;;;27.00;13.47;;;10.00;97.30;;;;;;5085911;28;20418;-78
2022/04/24 07:04:19;;;;;;;22.63;13.60;;;10.10;97.30;;;;;;5070784;28;20847;-78
2022/04/24 07:06:44;;;;;;;20.67;13.00;;;10.10;97.00;;;;;;5084419;28;20182;-78
2022/04/24 07:09:10;;;;;;;21.17;13.67;;;10.30;96.90;;;;;;5092678;28;20167;-80
2022/04/24 07:11:36;;;;;;;24.00;13.60;;;10.30;96.60;;;;;;5092758;28;20262;-79
2022/04/24 07:14:02;;;;;;;25.77;14.47;;;10.40;96.40;;;;;;5091856;28;20186;-79
2022/04/24 07:16:27;;;;;;;22.30;13.33;;;10.50;96.80;;;;;;5090678;28;20175;-79
2022/04/24 07:18:53;;;;;;;20.80;13.40;;;10.60;96.60;;;;;;5091583;28;20572;-80
2022/04/24 07:21:18;;;;;;;24.63;13.83;;;10.70;96.50;;;;;;5091980;28;20166;-80
2022/04/24 07:23:44;;;;;;;26.30;14.90;;;10.80;96.40;;;;;;5091257;28;20651;-79
2022/04/24 07:26:12;;;;;;;26.40;14.80;;;11.00;96.30;;;;;;5093408;28;20186;-78
2022/04/24 07:28:38;;;;;;;25.57;15.00;;;11.10;95.40;;;;;;5098514;28;20540;-79
2022/04/24 07:31:08;;;;;;;26.23;14.90;;;11.10;95.20;;;;;;5098829;28;20423;-79
2022/04/24 07:33:35;;;;;;;21.87;13.70;;;11.20;95.30;;;;;;5099314;28;20467;-80
2022/04/24 07:36:04;;;;;;;23.43;15.23;;;11.40;94.90;;;;;;5096753;28;20715;-80
2022/04/24 07:38:30;;;;;;;24.87;15.77;;;11.50;94.80;;;;;;5091115;28;20428;-80
2022/04/24 07:40:56;;;;;;;25.03;14.80;;;11.60;94.70;;;;;;5095272;28;20431;-78
2022/04/24 07:43:22;;;;;;;23.17;14.30;;;11.70;94.10;;;;;;5092820;28;20460;-79
2022/04/24 07:45:48;;;;;;;22.40;14.40;;;11.80;94.00;;;;;;5090590;28;20950;-79
2022/04/24 07:48:14;;;;;;;22.20;14.27;;;11.90;94.50;;;;;;5089623;28;20185;-79
2022/04/24 07:50:49;;;;;;;23.20;13.50;;;12.00;94.10;;;;;;5091957;28;20262;-79
2022/04/24 07:53:16;;;;;;;22.23;14.13;;;12.10;93.00;;;;;;5088452;28;20470;-80
2022/04/24 07:55:43;;;;;;;25.10;14.23;;;12.20;92.90;;;;;;5091358;28;20440;-80
2022/04/24 07:58:09;;;;;;;21.10;12.60;;;12.30;92.70;;;;;;5089622;28;20456;-79
2022/04/24 08:00:35;;;;;;;20.23;13.53;;;12.40;92.30;;;;;;5094814;28;20922;-81
2022/04/24 08:03:03;;;;;;;21.80;14.03;;;12.40;92.30;;;;;;5092916;28;20580;-80
2022/04/24 08:05:37;;;;;;;27.63;14.43;;;12.50;92.40;;;;;;5092760;28;20443;-80
2022/04/24 08:08:20;;;;;;;23.27;14.27;;;12.60;92.20;;;;;;5095737;28;20435;-80
2022/04/24 08:10:50;;;;;;;22.40;13.73;;;12.70;92.70;;;;;;5098121;28;20784;-80
2022/04/24 08:13:17;;;;;;;20.00;13.03;;;12.80;92.20;;;;;;5096923;28;20456;-80
2022/04/24 08:15:44;;;;;;;21.63;14.00;;;12.80;92.10;;;;;;5097856;28;20839;-80
2022/04/24 08:18:12;;;;;;;25.03;13.87;;;13.00;91.80;;;;;;5097239;28;20420;-80
2022/04/24 08:20:41;;;;;;;23.73;14.30;;;13.00;90.80;;;;;;5099021;28;20413;-80
2022/04/24 08:23:08;;;;;;;18.33;12.10;;;13.00;91.10;;;;;;5098357;28;20444;-80
2022/04/24 08:25:37;;;;;;;21.23;12.80;;;13.00;91.10;;;;;;5102600;28;20432;-80
2022/04/24 08:28:07;;;;;;;23.80;13.87;;;13.10;90.50;;;;;;5102187;28;20420;-80
2022/04/24 08:30:34;;;;;;;21.03;12.47;;;13.10;90.30;;;;;;5097634;28;20420;-80
2022/04/24 08:33:02;;;;;;;21.90;13.10;;;13.20;90.10;;;;;;5097748;28;20452;-81
2022/04/24 08:35:30;;;;;;;18.43;11.23;;;13.30;89.80;;;;;;5099301;28;20440;-82
2022/04/24 08:37:56;;;;;;;23.27;12.73;;;13.30;90.10;;;;;;5101201;28;20487;-80
2022/04/24 08:40:24;;;;;;;20.40;12.97;;;13.40;89.90;;;;;;5097521;28;20459;-81
2022/04/24 08:42:51;;;;;;;23.63;13.13;;;13.40;89.80;;;;;;5096644;28;20183;-81
2022/04/24 08:45:17;;;;;;;21.87;13.07;;;13.50;89.30;;;;;;5097528;28;20788;-81
2022/04/24 08:47:44;;;;;;;19.07;12.07;;;13.50;89.40;;;;;;5097079;28;20461;-80
2022/04/24 08:50:12;;;;;;;23.80;12.50;;;13.50;88.60;;;;;;5096747;28;20485;-80
2022/04/24 08:52:44;;;;;;;19.00;12.17;;;13.50;88.30;;;;;;5100682;28;20455;-81
2022/04/24 08:55:11;;;;;;;18.60;12.23;;;13.50;88.20;;;;;;5087957;28;21050;-80
2022/04/24 08:57:37;;;;;;;18.50;11.73;;;13.50;88.60;;;;;;5095806;28;20460;-81
2022/04/24 09:00:07;;;;;;;19.80;12.60;;;13.50;88.40;;;;;;5095973;28;20933;-80
2022/04/24 09:02:33;;;;;;;18.83;12.23;;;13.60;88.90;;;;;;5095209;28;20465;-80
2022/04/24 09:04:59;;;;;;;15.47;10.60;;;13.70;88.10;;;;;;5096043;28;20452;-81
2022/04/24 09:07:31;;;;;;;15.63;10.30;;;13.70;87.40;;;;;;5096097;28;20492;-81
2022/04/24 09:09:56;;;;;;;15.80;9.87;;;13.80;86.50;;;;;;5095541;28;20189;-81
2022/04/24 09:12:24;;;;;;;13.30;8.97;;;13.80;84.50;;;;;;5095904;28;20497;-81
2022/04/24 09:14:57;;;;;;;12.40;8.53;;;13.90;84.70;;;;;;5095229;28;20278;-77
2022/04/24 09:17:25;;;;;;;16.67;8.90;;;13.90;83.10;;;;;;5095542;28;20416;-78
2022/04/24 09:19:53;;;;;;;13.27;8.47;;;13.90;82.60;;;;;;5095154;28;20408;-78
2022/04/24 09:22:20;;;;;;;13.27;9.50;;;14.00;82.80;;;;;;5094757;28;20416;-76
2022/04/24 09:24:55;;;;;;;14.70;10.00;;;14.00;82.90;;;;;;5094269;28;20533;-78
2022/04/24 09:27:30;;;;;;;13.10;8.27;;;14.00;82.90;;;;;;5096986;28;20393;-77
2022/04/24 09:29:59;;;;;;;11.90;8.67;;;14.00;83.20;;;;;;5094932;28;20946;-78
2022/04/24 09:32:26;;;;;;;14.50;8.77;;;14.10;83.30;;;;;;5095790;28;20959;-78
2022/04/24 09:34:52;;;;;;;13.10;8.90;;;14.10;83.30;;;;;;5092571;28;20435;-78
2022/04/24 09:37:19;;;;;;;14.70;9.00;;;14.10;83.00;;;;;;5093014;28;20499;-76
2022/04/24 09:39:45;;;;;;;14.03;8.70;;;14.10;83.40;;;;;;5093651;28;20412;-77
2022/04/24 09:42:15;;;;;;;13.40;8.93;;;14.10;83.20;;;;;;5093578;28;20412;-77
2022/04/24 09:44:45;;;;;;;10.33;7.93;;;14.10;83.50;;;;;;5092407;28;20963;-78
2022/04/24 09:47:11;;;;;;;13.93;8.43;;;14.10;83.80;;;;;;5092286;28;21024;-77
2022/04/24 09:49:50;;;;;;;12.83;7.87;;;14.10;83.70;;;;;;5091874;28;20463;-76
2022/04/24 09:52:19;;;;;;;12.37;8.10;;;14.10;83.90;;;;;;5093610;28;20460;-77
2022/04/24 09:54:51;;;;;;;11.80;7.73;;;14.10;83.80;;;;;;5095127;28;20433;-76
2022/04/24 09:57:24;;;;;;;10.87;7.20;;;14.10;83.30;;;;;;5091361;28;20503;-78
2022/04/24 09:59:53;;;;;;;12.43;8.30;;;14.10;83.60;;;;;;5091746;28;20850;-76
2022/04/24 10:02:20;;;;;;;11.93;8.07;;;14.10;84.10;;;;;;5093760;28;20420;-78
2022/04/24 10:04:48;;;;;;;12.07;8.30;;;14.00;82.80;;;;;;5095852;28;20448;-77
2022/04/24 10:07:16;;;;;;;9.70;6.87;;;14.10;82.20;;;;;;5092887;28;20803;-77
2022/04/24 10:09:44;;;;;;;10.47;6.53;;;14.10;82.00;;;;;;5093845;28;20488;-77
2022/04/24 10:12:20;;;;;;;11.20;6.70;;;14.10;82.60;;;;;;5094060;28;20809;-78
2022/04/24 10:15:13;;;;;;;10.50;7.00;;;14.20;82.00;;;;;;5094322;28;20463;-78
2022/04/24 10:18:10;;;;;;;9.87;7.13;;;14.20;82.20;;;;;;5089095;28;20420;-79
2022/04/24 10:20:42;;;;;;;8.87;6.70;;;14.20;82.10;;;;;;5091552;28;20427;-77
2022/04/24 10:23:09;;;;;;;9.70;7.13;;;14.30;82.20;;;;;;5091312;28;20440;-79
2022/04/24 10:25:40;;;;;;;12.53;7.50;;;14.30;81.60;;;;;;5091858;28;20477;-79
2022/04/24 10:28:18;;;;;;;10.27;6.90;;;14.30;81.50;;;;;;5093648;28;20743;-79
2022/04/24 10:30:57;;;;;;;13.47;7.70;;;14.40;81.50;;;;;;5106648;28;20932;-78
2022/04/24 10:33:30;;;;;;;10.23;6.47;;;14.40;81.70;;;;;;5088241;28;20643;-78
2022/04/24 10:35:59;;;;;;;10.90;7.27;;;14.40;82.50;;;;;;5094077;28;20975;-79
2022/04/24 10:38:29;;;;;;;13.10;7.27;;;14.50;82.60;;;;;;5091896;28;20558;-78
2022/04/24 10:41:07;;;;;;;14.60;8.07;;;14.50;83.50;;;;;;5091492;28;20503;-78
2022/04/24 10:43:46;;;;;;;11.20;7.33;;;14.60;83.60;;;;;;5089483;28;20447;-78
2022/04/24 10:46:24;;;;;;;10.97;7.70;;;14.60;84.40;;;;;;5096915;28;21100;-78
2022/04/24 10:48:51;;;;;;;8.37;7.17;;;14.60;83.70;;;;;;5099297;28;20500;-78
2022/04/24 10:51:29;;;;;;;13.87;8.23;;;14.60;83.10;;;;;;5096926;28;20421;-78
2022/04/24 10:54:24;;;;;;;11.70;7.60;;;14.60;83.90;;;;;;5091466;28;20490;-78
2022/04/24 10:56:55;;;;;;;10.87;6.57;;;14.60;83.70;;;;;;5089028;28;20456;-77
2022/04/24 10:59:22;;;;;;;24.00;7.60;;;14.60;84.00;;;;;;5095258;28;20452;-78
2022/04/24 11:01:52;;;;;;;10.67;6.77;;;14.60;82.70;;;;;;5076631;28;20179;-77
2022/04/24 11:04:19;;;;;;;15.43;7.80;;;14.60;82.80;;;;;;5068684;28;20440;-78
2022/04/24 11:06:59;;;;;;;12.50;7.27;;;14.60;82.70;;;;;;5085061;28;20436;-77
2022/04/24 11:09:30;;;;;;;15.00;7.27;;;14.60;82.90;;;;;;5068413;28;20420;-78
2022/04/24 11:11:58;;;;;;;14.43;7.30;;;14.70;82.10;;;;;;5068579;28;20461;-78
2022/04/24 11:14:26;;;;;;;14.43;7.27;;;14.70;82.80;;;;;;5077933;28;20468;-78
2022/04/24 11:16:57;;;;;;;15.10;7.17;;;14.80;83.10;;;;;;5087893;28;20428;-78
2022/04/24 11:19:29;;;;;;;12.00;6.73;;;14.80;82.60;;;;;;5087664;28;20416;-78
2022/04/24 11:21:59;;;;;;;11.03;6.67;;;14.70;83.20;;;;;;5088630;28;20463;-80
2022/04/24 11:24:29;;;;;;;14.00;7.87;;;14.80;82.90;;;;;;5094066;28;20440;-81
2022/04/24 11:26:56;;;;;;;14.30;7.70;;;14.70;83.10;;;;;;5093609;28;20934;-81
2022/04/24 11:29:23;;;;;;;10.93;6.70;;;14.80;83.30;;;;;;5093856;28;20424;-81
2022/04/24 11:31:53;;;;;;;12.97;6.70;;;14.80;82.60;;;;;;5081787;28;21040;-81
2022/04/24 11:34:20;;;;;;;12.97;7.23;;;14.80;82.10;;;;;;5080998;28;20471;-81
2022/04/24 11:36:48;;;;;;;14.50;6.60;;;14.90;82.30;;;;;;5092249;28;20438;-81
2022/04/24 11:39:15;;;;;;;9.03;6.17;;;14.90;82.40;;;;;;5093782;28;20424;-80
2022/04/24 11:41:43;;;;;;;10.27;6.90;;;15.00;82.40;;;;;;5091569;28;20428;-81
2022/04/24 11:52:28;;;;;;;10.63;6.70;;;15.40;80.50;;;;;;5095337;28;20856;-81
2022/04/24 11:54:56;;;;;;;9.83;7.23;;;15.40;79.70;;;;;;5094793;28;20536;-81
2022/04/24 11:57:21;;;;;;;20.33;6.63;;;15.40;80.10;;;;;;5093728;28;20225;-81
2022/04/24 11:59:57;;;;;;;11.37;6.63;;;15.40;80.50;;;;;;5094363;28;20421;-81
2022/04/24 12:02:25;;;;;;;12.20;7.07;;;15.40;80.10;;;;;;5090220;28;20274;-80
2022/04/24 12:04:52;;;;;;;11.53;5.77;;;15.40;80.80;;;;;;5095419;28;20439;-80
2022/04/24 12:07:18;;;;;;;11.87;5.87;;;15.40;80.80;;;;;;5094645;28;20431;-81
2022/04/24 12:09:44;;;;;;;14.50;6.57;;;15.30;80.20;;;;;;5094760;28;20462;-81
2022/04/24 12:12:14;;;;;;;9.10;6.30;;;15.30;79.50;;;;;;5092852;28;20856;-80
2022/04/24 12:14:42;;;;;;;11.73;6.30;;;15.30;80.10;;;;;;5094808;28;20437;-79
2022/04/24 12:17:10;;;;;;;9.47;5.60;;;15.30;80.40;;;;;;5094274;28;20421;-79
2022/04/24 12:19:40;;;;;;;11.63;6.40;;;15.40;80.60;;;;;;5092738;28;20416;-80
2022/04/24 12:22:11;;;;;;;10.37;6.23;;;15.50;80.90;;;;;;5092510;28;20440;-79
2022/04/24 12:24:47;;;;;;;11.47;5.80;;;15.60;79.90;;;;;;5092962;28;20470;-80
2022/04/24 12:27:15;;;;;;;9.30;6.27;;;15.60;79.90;;;;;;5088018;28;20433;-79
2022/04/24 12:29:44;;;;;;;9.57;5.57;;;15.60;78.60;;;;;;5097257;28;20420;-79
2022/04/24 12:32:14;;;;;;;14.93;5.70;;;15.60;78.80;;;;;;5092369;28;20499;-80
2022/04/24 12:34:43;;;;;;;10.33;5.93;;;15.60;78.90;;;;;;5103578;28;20444;-79
2022/04/24 12:37:09;;;;;;;9.90;6.40;;;15.70;79.90;;;;;;5099030;28;20925;-80
2022/04/24 12:39:35;;;;;;;11.67;5.73;;;15.70;79.70;;;;;;5096592;28;20960;-80
2022/04/24 12:42:16;;;;;;;8.87;6.13;;;15.80;78.90;;;;;;5095395;28;20178;-81
2022/04/24 12:44:42;;;;;;;10.90;5.47;;;15.80;78.80;;;;;;5096717;28;20440;-80
2022/04/24 12:47:09;;;;;;;18.97;6.30;;;15.80;78.70;;;;;;5098610;28;20436;-79